Algoma Guardian — CFK9698 — position and weather

sailwx.info

Track history (hours):
 
Tides and Currents Weather Stations Pressure Air Temp Water Temp Dewpoint Dewpoint Depression Visibility Wind Speed Wind Dir Waves Ship Positions

Algoma Guardian

Last reported at 2017-Dec-29 05:49 UTC. Time now 2018-Jan-21 04:59 UTC.
Position N 45°31' W 083°20'.
Warning: this ship's position is 22 days out of date.

Length 222 m; draft 7.4 m.

Type: Cargo ship. MMSI: 316018031.

Date/timePositionNaut miles runAvg speedWind from/ knotsBaromVisibWave heightAir tempDewpointWater temp
2017-Dec-29 05:49N 45°31' W 083°20'413.7
2017-Dec-29 05:30N 45°34' W 083°24'913.4
2017-Dec-29 04:50N 45°41' W 083°33'342 8.1
2017-Dec-27 10:36N 47°02' W 091°34'113.8
2017-Dec-27 10:30N 47°01' W 091°36'3 0.2
2017-Dec-26 20:26N 47°01' W 091°40'1 2.1
2017-Dec-26 20:00N 46°60' W 091°40'1 2.1
2017-Dec-26 19:30N 47°00' W 091°39'0 0.6
2017-Dec-26 18:52N 47°01' W 091°39'0 0.0
2017-Dec-26 18:25N 47°01' W 091°39'0 0.0
2017-Dec-26 18:00N 47°01' W 091°39'0 0.0
2017-Dec-26 16:05N 47°01' W 091°39'0 0.0
2017-Dec-26 15:45N 47°01' W 091°39'0 0.0
2017-Dec-26 15:03N 47°01' W 091°39'0 0.2
2017-Dec-26 15:00N 47°01' W 091°39'0 0.0
2017-Dec-26 14:23N 47°01' W 091°39'0 0.1
2017-Dec-26 14:00N 47°01' W 091°39'0 0.0
2017-Dec-26 13:30N 47°01' W 091°39'0 0.0
2017-Dec-26 13:00N 47°01' W 091°39'0 0.0
2017-Dec-26 12:30N 47°01' W 091°39'0 0.1
2017-Dec-26 11:58N 47°01' W 091°39'0 0.1
2017-Dec-26 11:29N 47°01' W 091°39'0 0.1
2017-Dec-26 11:00N 47°01' W 091°39'0 0.0
2017-Dec-26 10:29N 47°01' W 091°39'0 0.0
2017-Dec-26 10:00N 47°01' W 091°39'0 0.1
2017-Dec-26 09:30N 47°01' W 091°39'0 0.0
2017-Dec-26 08:58N 47°01' W 091°39'0 0.0
2017-Dec-26 08:30N 47°01' W 091°39'0 0.0
2017-Dec-26 08:00N 47°01' W 091°39'0 0.0
2017-Dec-26 07:30N 47°01' W 091°39'0 0.0
2017-Dec-26 06:32N 47°01' W 091°39'0 0.0
2017-Dec-26 06:12N 47°01' W 091°39'0 0.0
2017-Dec-26 05:22N 47°01' W 091°39'0 0.1
2017-Dec-26 05:00N 47°01' W 091°39'0 0.0
2017-Dec-26 04:24N 47°01' W 091°39'0 0.0
2017-Dec-26 03:58N 47°01' W 091°39'0 0.1
2017-Dec-26 03:30N 47°01' W 091°39'0 0.0
2017-Dec-26 02:59N 47°01' W 091°39'0 0.0
2017-Dec-26 02:29N 47°01' W 091°39'0 0.0
2017-Dec-26 01:59N 47°01' W 091°39'0 0.1
2017-Dec-26 01:30N 47°01' W 091°39'0 0.0
2017-Dec-26 01:00N 47°01' W 091°39'0 0.0
2017-Dec-26 00:30N 47°01' W 091°39'0 0.0
2017-Dec-26 00:00N 47°01' W 091°39'0 0.0
2017-Dec-25 23:30N 47°01' W 091°39'0 0.0
2017-Dec-25 23:00N 47°01' W 091°39'0 0.0
2017-Dec-25 22:29N 47°01' W 091°39'0 0.0
2017-Dec-25 22:00N 47°01' W 091°39'0 0.1
2017-Dec-25 21:30N 47°01' W 091°39'0 0.0
2017-Dec-25 21:00N 47°01' W 091°39'0 0.0
2017-Dec-25 20:30N 47°01' W 091°39'0 0.0
2017-Dec-25 20:00N 47°01' W 091°39'0 0.1
2017-Dec-25 19:29N 47°01' W 091°39'0 0.0
2017-Dec-25 19:00N 47°01' W 091°39'0 0.0
2017-Dec-25 18:21N 47°01' W 091°39'0 0.0
2017-Dec-25 17:50N 47°01' W 091°39'0 0.0
2017-Dec-25 17:28N 47°01' W 091°39'0 0.0
2017-Dec-25 16:52N 47°01' W 091°39'0 0.0
2017-Dec-25 16:23N 47°01' W 091°39'0 0.1
2017-Dec-25 15:54N 47°01' W 091°39'0 0.0
2017-Dec-25 15:23N 47°01' W 091°39'0 0.0
2017-Dec-25 14:57N 47°01' W 091°39'0 0.1
2017-Dec-25 14:30N 47°01' W 091°39'0 0.0
2017-Dec-25 13:57N 47°01' W 091°39'0 0.0
2017-Dec-25 13:30N 47°01' W 091°39'0 0.0
2017-Dec-25 12:54N 47°01' W 091°39'0 0.0
2017-Dec-25 12:19N 47°01' W 091°39'0 0.0
2017-Dec-25 11:57N 47°01' W 091°39'0 0.0
2017-Dec-25 11:30N 47°01' W 091°39'0 0.0
2017-Dec-25 11:00N 47°01' W 091°39'0 0.2
2017-Dec-25 10:30N 47°01' W 091°39'  
2017-Dec-20 11:51N 45°13' W 074°17'610.7
2017-Dec-20 11:16N 45°14' W 074°09'5 8.5
2017-Dec-20 10:44N 45°13' W 074°02'2 8.6
2017-Dec-20 10:29N 45°14' W 073°59'4 8.7
2017-Dec-20 10:01N 45°18' W 073°56'1 1.6
2017-Dec-20 09:30N 45°18' W 073°56'0 0.6
2017-Dec-20 09:00N 45°19' W 073°55'1 1.1
2017-Dec-20 08:30N 45°19' W 073°55'0 0.0
2017-Dec-20 08:00N 45°19' W 073°55'0 0.0
2017-Dec-20 07:30N 45°19' W 073°55'0 0.1
2017-Dec-20 07:00N 45°19' W 073°55'1 2.1
2017-Dec-20 06:30N 45°20' W 073°54'2 3.8
2017-Dec-20 06:00N 45°21' W 073°52'2 4.5
2017-Dec-20 05:30N 45°22' W 073°49'3 6.9
2017-Dec-20 05:00N 45°24' W 073°45'3 6.8
2017-Dec-20 04:30N 45°25' W 073°41'3 5.3
2017-Dec-20 03:59N 45°24' W 073°37'2 3.8
2017-Dec-20 03:29N 45°24' W 073°34'0 0.4
2017-Dec-20 02:59N 45°24' W 073°34'1 1.0
2017-Dec-20 02:23N 45°24' W 073°33'1 3.4
2017-Dec-20 01:59N 45°25' W 073°31'2 5.2
2017-Dec-20 01:30N 45°27' W 073°30'  
Track history (hours):
 
Tides and Currents Weather Stations Pressure Air Temp Water Temp Dewpoint Dewpoint Depression Visibility Wind Speed Wind Dir Waves Ship Positions

Algoma Guardian

Last reported at 2017-Dec-29 05:49 UTC. Time now 2018-Jan-21 04:59 UTC.
Position N 45°31' W 083°20'.
Warning: this ship's position is 22 days out of date.

Length 222 m; draft 7.4 m.

Type: Cargo ship. MMSI: 316018031.

Date/timePositionNaut miles runAvg speedWind from/ knotsBaromVisibWave heightAir tempDewpointWater temp
2017-Dec-29 05:49N 45°31' W 083°20'413.7
2017-Dec-29 05:30N 45°34' W 083°24'913.4
2017-Dec-29 04:50N 45°41' W 083°33'342 8.1
2017-Dec-27 10:36N 47°02' W 091°34'113.8
2017-Dec-27 10:30N 47°01' W 091°36'3 0.2
2017-Dec-26 20:26N 47°01' W 091°40'1 2.1
2017-Dec-26 20:00N 46°60' W 091°40'1 2.1
2017-Dec-26 19:30N 47°00' W 091°39'0 0.6
2017-Dec-26 18:52N 47°01' W 091°39'0 0.0
2017-Dec-26 18:25N 47°01' W 091°39'0 0.0
2017-Dec-26 18:00N 47°01' W 091°39'0 0.0
2017-Dec-26 16:05N 47°01' W 091°39'0 0.0
2017-Dec-26 15:45N 47°01' W 091°39'0 0.0
2017-Dec-26 15:03N 47°01' W 091°39'0 0.2
2017-Dec-26 15:00N 47°01' W 091°39'0 0.0
2017-Dec-26 14:23N 47°01' W 091°39'0 0.1
2017-Dec-26 14:00N 47°01' W 091°39'0 0.0
2017-Dec-26 13:30N 47°01' W 091°39'0 0.0
2017-Dec-26 13:00N 47°01' W 091°39'0 0.0
2017-Dec-26 12:30N 47°01' W 091°39'0 0.1
2017-Dec-26 11:58N 47°01' W 091°39'0 0.1
2017-Dec-26 11:29N 47°01' W 091°39'0 0.1
2017-Dec-26 11:00N 47°01' W 091°39'0 0.0
2017-Dec-26 10:29N 47°01' W 091°39'0 0.0
2017-Dec-26 10:00N 47°01' W 091°39'0 0.1
2017-Dec-26 09:30N 47°01' W 091°39'0 0.0
2017-Dec-26 08:58N 47°01' W 091°39'0 0.0
2017-Dec-26 08:30N 47°01' W 091°39'0 0.0
2017-Dec-26 08:00N 47°01' W 091°39'0 0.0
2017-Dec-26 07:30N 47°01' W 091°39'0 0.0
2017-Dec-26 06:32N 47°01' W 091°39'0 0.0
2017-Dec-26 06:12N 47°01' W 091°39'0 0.0
2017-Dec-26 05:22N 47°01' W 091°39'0 0.1
2017-Dec-26 05:00N 47°01' W 091°39'0 0.0
2017-Dec-26 04:24N 47°01' W 091°39'0 0.0
2017-Dec-26 03:58N 47°01' W 091°39'0 0.1
2017-Dec-26 03:30N 47°01' W 091°39'0 0.0
2017-Dec-26 02:59N 47°01' W 091°39'0 0.0
2017-Dec-26 02:29N 47°01' W 091°39'0 0.0
2017-Dec-26 01:59N 47°01' W 091°39'0 0.1
2017-Dec-26 01:30N 47°01' W 091°39'0 0.0
2017-Dec-26 01:00N 47°01' W 091°39'0 0.0
2017-Dec-26 00:30N 47°01' W 091°39'0 0.0
2017-Dec-26 00:00N 47°01' W 091°39'0 0.0
2017-Dec-25 23:30N 47°01' W 091°39'0 0.0
2017-Dec-25 23:00N 47°01' W 091°39'0 0.0
2017-Dec-25 22:29N 47°01' W 091°39'0 0.0
2017-Dec-25 22:00N 47°01' W 091°39'0 0.1
2017-Dec-25 21:30N 47°01' W 091°39'0 0.0
2017-Dec-25 21:00N 47°01' W 091°39'0 0.0
2017-Dec-25 20:30N 47°01' W 091°39'0 0.0
2017-Dec-25 20:00N 47°01' W 091°39'0 0.1
2017-Dec-25 19:29N 47°01' W 091°39'0 0.0
2017-Dec-25 19:00N 47°01' W 091°39'0 0.0
2017-Dec-25 18:21N 47°01' W 091°39'0 0.0
2017-Dec-25 17:50N 47°01' W 091°39'0 0.0
2017-Dec-25 17:28N 47°01' W 091°39'0 0.0
2017-Dec-25 16:52N 47°01' W 091°39'0 0.0
2017-Dec-25 16:23N 47°01' W 091°39'0 0.1
2017-Dec-25 15:54N 47°01' W 091°39'0 0.0
2017-Dec-25 15:23N 47°01' W 091°39'0 0.0
2017-Dec-25 14:57N 47°01' W 091°39'0 0.1
2017-Dec-25 14:30N 47°01' W 091°39'0 0.0
2017-Dec-25 13:57N 47°01' W 091°39'0 0.0
2017-Dec-25 13:30N 47°01' W 091°39'0 0.0
2017-Dec-25 12:54N 47°01' W 091°39'0 0.0
2017-Dec-25 12:19N 47°01' W 091°39'0 0.0
2017-Dec-25 11:57N 47°01' W 091°39'0 0.0
2017-Dec-25 11:30N 47°01' W 091°39'0 0.0
2017-Dec-25 11:00N 47°01' W 091°39'0 0.2
2017-Dec-25 10:30N 47°01' W 091°39'  
2017-Dec-20 11:51N 45°13' W 074°17'610.7
2017-Dec-20 11:16N 45°14' W 074°09'5 8.5
2017-Dec-20 10:44N 45°13' W 074°02'2 8.6
2017-Dec-20 10:29N 45°14' W 073°59'4 8.7
2017-Dec-20 10:01N 45°18' W 073°56'1 1.6
2017-Dec-20 09:30N 45°18' W 073°56'0 0.6
2017-Dec-20 09:00N 45°19' W 073°55'1 1.1
2017-Dec-20 08:30N 45°19' W 073°55'0 0.0
2017-Dec-20 08:00N 45°19' W 073°55'0 0.0
2017-Dec-20 07:30N 45°19' W 073°55'0 0.1
2017-Dec-20 07:00N 45°19' W 073°55'1 2.1
2017-Dec-20 06:30N 45°20' W 073°54'2 3.8
2017-Dec-20 06:00N 45°21' W 073°52'2 4.5
2017-Dec-20 05:30N 45°22' W 073°49'3 6.9
2017-Dec-20 05:00N 45°24' W 073°45'3 6.8
2017-Dec-20 04:30N 45°25' W 073°41'3 5.3
2017-Dec-20 03:59N 45°24' W 073°37'2 3.8
2017-Dec-20 03:29N 45°24' W 073°34'0 0.4
2017-Dec-20 02:59N 45°24' W 073°34'1 1.0
2017-Dec-20 02:23N 45°24' W 073°33'1 3.4
2017-Dec-20 01:59N 45°25' W 073°31'2 5.2
2017-Dec-20 01:30N 45°27' W 073°30'  

Dump ship's entire track history